Time;durP1;ratioP1;P1;durP2;ratioP2;P2;SDS_P1;SDS_P2;PMS_P1;PMS_P2;Temp;Humidity;BMP_temperature;BMP_pressure;BME280_temperature;BME280_humidity;BME280_pressure;Samples;Min_cycle;Max_cycle;Signal;HPM_P1;HPM_P2
2022/06/09 00:01:11;;;;;;;1.15;0.70;;;;;;;10.23;100.00;92613.72;2107131;28;20055;-89
2022/06/09 00:02:12;;;;;;;1.25;0.60;;;;;;;10.26;100.00;92609.47;2100394;28;20425;-89
2022/06/09 00:03:18;;;;;;;0.98;0.63;;;;;;;10.27;100.00;92610.94;2096354;28;20028;-89
2022/06/09 00:04:45;;;;;;;1.52;0.60;;;;;;;10.22;100.00;92606.13;2107873;28;20185;-89
2022/06/09 00:05:46;;;;;;;1.95;0.73;;;;;;;10.25;100.00;92606.03;2110866;28;20068;-88
2022/06/09 00:07:10;;;;;;;0.60;0.60;;;;;;;10.22;100.00;92598.84;2107229;28;20165;-88
2022/06/09 00:08:13;;;;;;;2.78;0.60;;;;;;;10.21;100.00;92599.28;2102081;28;20058;-87
2022/06/09 00:09:16;;;;;;;0.80;0.70;;;;;;;10.21;100.00;92602.69;2091202;28;20557;-88
2022/06/09 00:10:26;;;;;;;0.75;0.60;;;;;;;10.22;100.00;92606.13;2099908;28;20036;-88
2022/06/09 00:11:27;;;;;;;0.60;0.60;;;;;;;10.20;100.00;92595.88;2099980;28;20050;-88
2022/06/09 00:12:30;;;;;;;1.80;0.60;;;;;;;10.26;100.00;92590.75;2090820;28;20086;-88
2022/06/09 00:13:31;;;;;;;1.23;0.50;;;;;;;10.28;100.00;92596.44;2090775;28;20028;-89
2022/06/09 00:14:32;;;;;;;0.98;0.68;;;;;;;10.26;100.00;92601.44;2098826;28;20049;-89
2022/06/09 00:15:33;;;;;;;0.60;0.60;;;;;;;10.33;100.00;92602.00;2098684;28;20029;-87
2022/06/09 00:16:36;;;;;;;0.70;0.70;;;;;;;10.29;100.00;92593.34;2098868;28;20024;-87
2022/06/09 00:17:37;;;;;;;0.63;0.52;;;;;;;10.31;100.00;92599.00;2099313;28;20116;-87
2022/06/09 00:18:38;;;;;;;0.60;0.60;;;;;;;10.23;100.00;92605.69;2107206;28;20123;-88
2022/06/09 00:19:39;;;;;;;1.48;0.60;;;;;;;10.25;100.00;92603.38;2107348;28;20020;-88
2022/06/09 00:20:40;;;;;;;1.13;0.60;;;;;;;10.28;100.00;92609.78;2098724;28;20029;-88
2022/06/09 00:21:41;;;;;;;0.60;0.60;;;;;;;10.17;100.00;92607.38;2090594;28;20031;-88
2022/06/09 00:22:42;;;;;;;0.68;0.60;;;;;;;10.16;100.00;92611.25;2098930;28;20024;-89
2022/06/09 00:23:44;;;;;;;1.35;0.70;;;;;;;10.13;100.00;92606.00;2098887;28;20382;-88
2022/06/09 00:24:45;;;;;;;1.27;0.70;;;;;;;10.07;100.00;92609.19;2099187;28;20405;-89
2022/06/09 00:25:49;;;;;;;2.55;0.60;;;;;;;10.20;100.00;92605.81;2098778;28;20043;-89
2022/06/09 00:26:50;;;;;;;1.45;0.65;;;;;;;10.12;100.00;92607.16;2099604;28;20030;-89
2022/06/09 00:27:51;;;;;;;1.23;0.70;;;;;;;10.10;100.00;92610.28;2107156;28;20565;-88
2022/06/09 00:28:54;;;;;;;1.95;0.65;;;;;;;10.16;100.00;92605.16;2098694;28;20020;-90
2022/06/09 00:29:56;;;;;;;1.50;0.60;;;;;;;10.09;100.00;92600.75;2099221;28;20052;-88
2022/06/09 00:30:57;;;;;;;0.88;0.80;;;;;;;10.11;100.00;92608.34;2098791;28;20442;-88
2022/06/09 00:31:58;;;;;;;1.40;0.60;;;;;;;10.10;100.00;92602.25;2090517;28;20387;-88
2022/06/09 00:32:59;;;;;;;3.50;0.70;;;;;;;10.05;100.00;92605.44;2090649;28;20127;-89
2022/06/09 00:34:01;;;;;;;1.67;0.70;;;;;;;10.03;100.00;92608.53;2103729;28;20376;-89
2022/06/09 00:35:02;;;;;;;0.70;0.70;;;;;;;9.95;100.00;92604.56;2106791;28;20116;-89
2022/06/09 00:36:03;;;;;;;1.38;0.80;;;;;;;9.95;100.00;92609.91;2090569;28;20024;-89
2022/06/09 00:37:04;;;;;;;1.20;0.70;;;;;;;9.93;100.00;92603.50;2098616;28;20497;-89
2022/06/09 00:38:06;;;;;;;1.73;0.70;;;;;;;9.86;100.00;92617.78;2090857;28;20021;-88
2022/06/09 00:39:07;;;;;;;1.08;0.60;;;;;;;9.89;100.00;92619.63;2107163;28;20024;-87
2022/06/09 00:40:11;;;;;;;3.72;0.80;;;;;;;9.83;100.00;92613.28;2098544;28;20052;-88
2022/06/09 00:41:12;;;;;;;0.65;0.60;;;;;;;9.94;100.00;92618.34;2099428;28;20021;-88
2022/06/09 00:42:13;;;;;;;0.75;0.65;;;;;;;9.84;100.00;92620.13;2107011;28;20031;-88
2022/06/09 00:43:14;;;;;;;1.98;0.73;;;;;;;9.75;100.00;92618.09;2098505;28;20066;-88
2022/06/09 00:44:28;;;;;;;0.63;0.50;;;;;;;9.78;100.00;92619.88;2090451;28;20075;-89
2022/06/09 00:45:39;;;;;;;2.17;0.60;;;;;;;9.81;100.00;92612.97;2093611;28;20017;-88
2022/06/09 00:47:33;;;;;;;0.88;0.60;;;;;;;9.75;100.00;92618.09;2100144;28;20162;-89
2022/06/09 00:48:44;;;;;;;2.25;0.60;;;;;;;9.86;100.00;92623.13;2113319;28;20081;-88
2022/06/09 00:49:59;;;;;;;2.45;0.60;;;;;;;9.84;100.00;92620.88;2100034;28;20020;-88
2022/06/09 00:51:44;;;;;;;2.50;0.50;;;;;;;9.83;100.00;92614.06;2102323;28;20374;-88
2022/06/09 00:52:54;;;;;;;1.55;0.60;;;;;;;9.90;100.00;92618.44;2104542;28;20104;-89
2022/06/09 00:54:10;;;;;;;2.35;0.70;;;;;;;9.95;100.00;92620.59;2108379;28;20051;-88
2022/06/09 00:55:15;;;;;;;0.60;0.60;;;;;;;9.98;100.00;92614.41;2100551;28;20020;-88
2022/06/09 00:56:16;;;;;;;5.07;0.90;;;;;;;10.07;100.00;92617.19;2099623;28;20473;-89
2022/06/09 00:57:46;;;;;;;2.03;0.70;;;;;;;10.27;100.00;92617.06;2106933;28;20042;-88
2022/06/09 00:58:51;;;;;;;2.92;0.90;;;;;;;10.33;100.00;92617.28;2115641;28;20610;-89
2022/06/09 00:59:58;;;;;;;1.40;0.60;;;;;;;10.36;100.00;92621.00;2115181;28;20027;-89
2022/06/09 01:01:06;;;;;;;0.80;0.38;;;;;;;10.57;100.00;92617.72;2100001;28;20111;-88
2022/06/09 01:02:10;;;;;;;0.50;0.47;;;;;;;10.77;100.00;92617.50;2100414;28;20020;-89
2022/06/09 01:03:12;;;;;;;2.45;0.70;;;;;;;10.69;100.00;92611.63;2099374;28;20028;-88
2022/06/09 01:04:17;;;;;;;1.00;0.70;;;;;;;10.60;100.00;92616.88;2098469;28;20029;-88
2022/06/09 01:05:21;;;;;;;0.50;0.50;;;;;;;10.76;100.00;92626.72;2099087;28;20040;-87
2022/06/09 01:06:27;;;;;;;0.60;0.60;;;;;;;10.72;100.00;92626.06;2099266;28;20051;-89
2022/06/09 01:07:35;;;;;;;1.50;0.60;;;;;;;10.88;100.00;92635.88;2115102;28;20488;-89
2022/06/09 01:09:31;;;;;;;0.70;0.50;;;;;;;10.84;100.00;92627.97;2099366;28;20075;-88
2022/06/09 01:10:33;;;;;;;1.20;0.55;;;;;;;10.78;100.00;92619.75;2113676;28;20114;-88
2022/06/09 01:11:34;;;;;;;1.30;0.90;;;;;;;10.84;100.00;92623.41;2106739;28;20068;-88
2022/06/09 01:12:41;;;;;;;1.88;0.50;;;;;;;10.75;100.00;92622.53;2106666;28;20063;-88
2022/06/09 01:13:43;;;;;;;1.05;0.60;;;;;;;10.80;100.00;92622.75;2107700;28;20357;-88
2022/06/09 01:14:45;;;;;;;0.52;0.52;;;;;;;10.71;100.00;92625.31;2106852;28;20063;-89
2022/06/09 01:16:08;;;;;;;1.80;0.50;;;;;;;10.83;100.00;92624.56;2098416;28;20469;-89
2022/06/09 01:17:44;;;;;;;1.23;0.60;;;;;;;10.81;100.00;92628.84;2104372;28;20034;-89
2022/06/09 01:19:13;;;;;;;1.00;0.60;;;;;;;10.92;100.00;92628.50;2099377;28;20431;-89
2022/06/09 01:20:46;;;;;;;0.75;0.73;;;;;;;10.93;100.00;92625.41;2106193;28;20495;-90
2022/06/09 01:22:17;;;;;;;0.98;0.70;;;;;;;11.01;100.00;92621.31;2098310;28;20089;-89
2022/06/09 01:23:33;;;;;;;1.10;0.60;;;;;;;11.15;100.00;92624.72;2098185;28;20047;-89
2022/06/09 01:24:55;;;;;;;1.73;0.65;;;;;;;11.00;100.00;92625.19;2102578;28;20028;-89
2022/06/09 01:26:57;;;;;;;1.27;0.68;;;;;;;11.08;100.00;92628.38;2109696;28;20051;-89
2022/06/09 01:28:13;;;;;;;3.63;0.80;;;;;;;11.02;100.00;92633.53;2068040;28;20040;-89
2022/06/09 01:29:31;;;;;;;2.80;0.70;;;;;;;11.01;100.00;92628.59;2064494;28;20037;-89
2022/06/09 01:30:43;;;;;;;1.60;0.60;;;;;;;10.93;100.00;92628.09;2075458;28;20041;-89
2022/06/09 01:32:22;;;;;;;0.93;0.70;;;;;;;10.81;100.00;92612.81;2074853;28;20030;-89
2022/06/09 01:33:29;;;;;;;1.63;0.70;;;;;;;10.99;100.00;92622.94;2078439;28;20474;-89
2022/06/09 01:34:58;;;;;;;3.15;0.75;;;;;;;10.92;100.00;92618.56;2065665;28;20149;-88
2022/06/09 01:36:12;;;;;;;3.50;0.60;;;;;;;10.79;100.00;92623.16;2076888;28;20514;-87
2022/06/09 01:37:37;;;;;;;1.33;0.90;;;;;;;10.74;100.00;92627.13;2103178;28;20077;-89
2022/06/09 01:38:48;;;;;;;1.77;0.68;;;;;;;10.83;100.00;92627.22;2109802;28;20111;-89
2022/06/09 01:39:53;;;;;;;0.90;0.60;;;;;;;11.04;100.00;92633.84;2109461;27;20019;-89
2022/06/09 01:40:53;;;;;;;1.25;0.90;;;;;;;11.13;100.00;92643.16;2123288;27;20066;-88
2022/06/09 01:41:55;;;;;;;2.13;0.73;;;;;;;10.84;100.00;92641.34;2106594;28;20024;-88
2022/06/09 01:42:58;;;;;;;2.47;0.73;;;;;;;10.89;100.00;92648.06;2106404;28;20016;-87
2022/06/09 01:44:00;;;;;;;0.80;0.80;;;;;;;10.91;100.00;92651.06;2107070;28;20027;-89
2022/06/09 01:45:07;;;;;;;0.88;0.70;;;;;;;11.04;100.00;92652.56;2098294;28;20031;-88
2022/06/09 01:46:19;;;;;;;1.80;0.70;;;;;;;11.18;100.00;92647.94;2099866;28;20017;-88
2022/06/09 01:47:24;;;;;;;1.63;0.98;;;;;;;10.96;100.00;92645.94;2109766;28;20019;-89
2022/06/09 01:48:27;;;;;;;1.10;0.85;;;;;;;10.84;100.00;92644.78;2115642;28;20377;-88
2022/06/09 01:49:32;;;;;;;1.77;0.90;;;;;;;11.14;100.00;92639.28;2106840;28;20623;-88
2022/06/09 01:50:49;;;;;;;4.22;0.80;;;;;;;11.20;100.00;92642.94;2115629;27;20027;-88
2022/06/09 01:51:52;;;;;;;3.65;0.90;;;;;;;11.10;100.00;92637.47;2117138;27;20027;-89
2022/06/09 01:52:56;;;;;;;2.08;0.77;;;;;;;10.96;100.00;92645.19;2114856;28;20023;-88
2022/06/09 01:54:08;;;;;;;1.98;1.08;;;;;;;10.79;100.00;92641.88;2099041;28;20389;-88
2022/06/09 01:55:14;;;;;;;2.10;0.90;;;;;;;10.67;100.00;92627.34;2101278;28;20024;-89
2022/06/09 01:56:21;;;;;;;1.88;0.77;;;;;;;10.56;100.00;92634.94;2099396;28;20016;-90
2022/06/09 01:57:28;;;;;;;1.27;0.90;;;;;;;10.56;100.00;92641.03;2108324;28;20719;-89
2022/06/09 01:58:35;;;;;;;2.30;1.00;;;;;;;10.57;100.00;92641.75;2116082;28;20100;-89
2022/06/09 01:59:43;;;;;;;3.40;0.80;;;;;;;10.55;100.00;92631.50;2107550;28;20089;-88
2022/06/09 02:00:47;;;;;;;1.83;0.80;;;;;;;10.74;100.00;92634.41;2100616;28;20533;-89
2022/06/09 02:02:04;;;;;;;1.02;0.88;;;;;;;10.46;100.00;92634.06;2099318;28;20460;-89
2022/06/09 02:03:28;;;;;;;2.85;1.02;;;;;;;10.84;100.00;92627.97;2117424;27;20031;-88
2022/06/09 02:04:38;;;;;;;2.58;1.10;;;;;;;10.76;100.00;92627.47;2106446;28;20087;-88
2022/06/09 02:05:42;;;;;;;;;;;;;;;10.54;100.00;92635.38;2101064;28;20579;-87
2022/06/09 02:06:45;;;;;;;3.55;0.98;;;;;;;10.41;100.00;92625.84;2106522;28;19907;-88
2022/06/09 02:07:47;;;;;;;3.78;1.00;;;;;;;10.41;100.00;92637.28;2090457;28;20490;-90
2022/06/09 02:08:48;;;;;;;2.45;1.20;;;;;;;10.54;100.00;92643.38;2098261;28;20027;-88
2022/06/09 02:09:50;;;;;;;2.03;0.90;;;;;;;10.55;100.00;92634.19;2090089;28;20028;-88
2022/06/09 02:10:57;;;;;;;2.45;1.00;;;;;;;10.43;100.00;92640.25;2098260;28;20032;-88
2022/06/09 02:12:33;;;;;;;3.60;0.90;;;;;;;10.35;100.00;92649.66;2099148;28;20473;-89
2022/06/09 02:13:41;;;;;;;3.13;0.93;;;;;;;10.36;100.00;92655.72;2103024;28;20079;-87
2022/06/09 02:14:46;;;;;;;1.10;0.90;;;;;;;10.34;100.00;92658.84;2100009;28;20069;-89
2022/06/09 02:15:50;;;;;;;4.28;1.23;;;;;;;10.17;100.00;92660.81;2107075;28;20024;-89
2022/06/09 02:16:51;;;;;;;7.22;1.13;;;;;;;10.06;100.00;92663.03;2106393;28;20081;-89
2022/06/09 02:17:52;;;;;;;2.05;1.17;;;;;;;9.98;100.00;92657.13;2104861;28;20020;-88
2022/06/09 02:18:56;;;;;;;2.83;1.40;;;;;;;9.99;100.00;92663.97;2106491;28;20028;-88
2022/06/09 02:19:57;;;;;;;1.38;0.98;;;;;;;9.89;100.00;92661.59;2106742;28;20044;-88
2022/06/09 02:21:04;;;;;;;4.35;1.10;;;;;;;9.87;100.00;92661.25;2097907;28;20021;-89
2022/06/09 02:22:10;;;;;;;1.90;1.25;;;;;;;9.84;100.00;92663.59;2099622;28;20047;-89
2022/06/09 02:23:14;;;;;;;1.63;1.25;;;;;;;9.83;100.00;92670.13;2098692;28;20024;-88
2022/06/09 02:24:15;;;;;;;1.73;1.23;;;;;;;9.86;100.00;92670.44;2098859;28;20078;-89
2022/06/09 02:25:17;;;;;;;3.45;1.00;;;;;;;9.78;100.00;92664.50;2097966;28;20443;-88
2022/06/09 02:26:18;;;;;;;3.72;1.05;;;;;;;9.77;100.00;92673.69;2089976;28;20024;-89
2022/06/09 02:27:20;;;;;;;4.03;1.10;;;;;;;9.71;100.00;92670.06;2098053;28;20119;-89
2022/06/09 02:28:21;;;;;;;3.08;1.10;;;;;;;9.65;100.00;92677.06;2098162;28;20031;-89
2022/06/09 02:29:22;;;;;;;1.90;1.00;;;;;;;9.64;100.00;92670.22;2106376;28;20024;-90
2022/06/09 02:30:23;;;;;;;3.78;0.95;;;;;;;9.83;100.00;92677.34;2106395;28;20030;-89
2022/06/09 02:31:25;;;;;;;3.67;0.90;;;;;;;9.78;100.00;92685.88;2097905;28;20028;-88
2022/06/09 02:32:27;;;;;;;7.18;1.27;;;;;;;9.69;100.00;92688.41;2090027;28;20047;-89
2022/06/09 02:33:35;;;;;;;4.25;1.00;;;;;;;9.70;100.00;92679.22;2090114;28;20029;-90
2022/06/09 02:34:36;;;;;;;4.72;0.90;;;;;;;9.62;100.00;92684.00;2100034;28;20397;-90
2022/06/09 02:35:39;;;;;;;2.70;1.00;;;;;;;9.80;100.00;92681.63;2097842;28;20037;-89
2022/06/09 02:36:40;;;;;;;4.28;1.00;;;;;;;9.69;100.00;92683.81;2090176;28;20029;-89
2022/06/09 02:37:41;;;;;;;2.58;1.15;;;;;;;9.68;100.00;92676.97;2098033;28;20024;-88
2022/06/09 02:38:42;;;;;;;4.65;1.00;;;;;;;9.73;100.00;92678.38;2097910;28;20024;-90
2022/06/09 02:39:43;;;;;;;1.33;1.08;;;;;;;9.76;100.00;92677.53;2098192;28;20028;-88
2022/06/09 02:40:45;;;;;;;0.95;0.80;;;;;;;9.82;100.00;92686.53;2098049;28;20028;-89
2022/06/09 02:41:46;;;;;;;2.97;1.10;;;;;;;9.93;100.00;92678.25;2089964;28;20024;-89
2022/06/09 02:42:47;;;;;;;2.58;0.95;;;;;;;10.05;100.00;92685.53;2098048;28;20095;-88
2022/06/09 02:43:48;;;;;;;4.35;1.13;;;;;;;10.02;100.00;92681.81;2097893;28;20498;-89
2022/06/09 02:44:49;;;;;;;1.95;0.80;;;;;;;9.98;100.00;92683.06;2098010;28;20029;-88
2022/06/09 02:45:51;;;;;;;5.28;0.98;;;;;;;9.86;100.00;92687.19;2106466;28;20500;-88
2022/06/09 02:46:52;;;;;;;2.55;0.98;;;;;;;10.16;100.00;92679.94;2098137;28;20116;-89
2022/06/09 02:47:53;;;;;;;3.05;1.20;;;;;;;10.01;100.00;92685.66;2106335;28;20031;-90
2022/06/09 02:48:54;;;;;;;1.88;0.90;;;;;;;10.03;100.00;92683.31;2097782;28;20020;-88
2022/06/09 02:49:55;;;;;;;3.22;1.17;;;;;;;9.98;100.00;92675.06;2098108;28;20111;-89
2022/06/09 02:50:56;;;;;;;4.07;1.00;;;;;;;9.84;100.00;92678.88;2106374;28;20020;-89
2022/06/09 02:51:57;;;;;;;4.20;0.90;;;;;;;9.82;100.00;92673.94;2106297;28;20027;-88
2022/06/09 02:52:59;;;;;;;4.95;0.70;;;;;;;9.77;100.00;92673.69;2097852;28;20020;-89
2022/06/09 02:54:54;;;;;;;2.75;1.10;;;;;;;9.70;100.00;92671.22;2097776;28;20146;-88
2022/06/09 02:55:55;;;;;;;2.40;0.98;;;;;;;9.62;100.00;92672.59;2112749;28;20497;-89
2022/06/09 02:56:56;;;;;;;4.90;0.95;;;;;;;9.53;100.00;92678.50;2097936;28;20025;-88
2022/06/09 02:57:57;;;;;;;2.10;1.15;;;;;;;9.77;100.00;92673.69;2098232;28;20024;-89
2022/06/09 02:59:00;;;;;;;4.15;1.30;;;;;;;9.81;100.00;92679.69;2106210;28;20485;-87
2022/06/09 03:00:02;;;;;;;3.50;1.10;;;;;;;9.89;100.00;92680.28;2098135;28;20025;-88
2022/06/09 03:01:03;;;;;;;1.98;0.90;;;;;;;9.97;100.00;92679.66;2097985;28;20369;-88
2022/06/09 03:02:04;;;;;;;3.88;0.98;;;;;;;9.84;100.00;92678.88;2089533;28;20072;-90
2022/06/09 03:03:11;;;;;;;4.22;0.80;;;;;;;9.76;100.00;92682.88;2089552;28;20025;-90
2022/06/09 03:04:12;;;;;;;1.73;0.80;;;;;;;9.69;100.00;92678.47;2097361;28;20104;-89
2022/06/09 03:05:14;;;;;;;4.97;0.80;;;;;;;9.60;100.00;92680.97;2106270;28;20031;-88
2022/06/09 03:06:15;;;;;;;3.15;0.90;;;;;;;9.54;100.00;92677.34;2106412;28;20515;-88
2022/06/09 03:07:16;;;;;;;3.67;1.00;;;;;;;9.53;100.00;92676.59;2106287;28;20050;-89
2022/06/09 03:08:17;;;;;;;2.63;0.90;;;;;;;9.46;100.00;92676.00;2115938;28;20024;-88
2022/06/09 03:09:18;;;;;;;2.33;0.82;;;;;;;9.45;100.00;92679.84;2116116;28;20019;-88
2022/06/09 03:10:20;;;;;;;1.80;0.85;;;;;;;9.47;100.00;92680.16;2107799;28;20028;-88
2022/06/09 03:11:21;;;;;;;3.80;0.80;;;;;;;9.43;100.00;92674.16;2107809;28;20027;-87
2022/06/09 03:12:22;;;;;;;2.22;0.90;;;;;;;9.42;100.00;92672.69;2097892;28;20496;-88
2022/06/09 03:13:24;;;;;;;2.05;0.80;;;;;;;9.54;100.00;92678.09;2099510;28;20492;-89
2022/06/09 03:14:25;;;;;;;2.70;1.08;;;;;;;9.51;100.00;92676.25;2093969;28;20020;-89
2022/06/09 03:15:35;;;;;;;3.58;0.90;;;;;;;9.44;100.00;92686.34;2091076;28;20067;-89
2022/06/09 03:16:37;;;;;;;4.15;1.05;;;;;;;9.36;100.00;92685.03;2109321;28;20442;-88
2022/06/09 03:17:38;;;;;;;1.23;0.98;;;;;;;9.29;100.00;92689.34;2107762;28;20027;-88
2022/06/09 03:18:39;;;;;;;4.47;1.40;;;;;;;9.29;100.00;92693.94;2099535;28;20074;-89
2022/06/09 03:19:40;;;;;;;5.20;1.00;;;;;;;9.32;100.00;92688.53;2099449;28;20439;-88
2022/06/09 03:20:41;;;;;;;5.00;0.90;;;;;;;9.26;100.00;92702.75;2107924;27;20028;-88
2022/06/09 03:21:42;;;;;;;3.08;1.00;;;;;;;9.22;100.00;92694.88;2116337;28;20019;-89
2022/06/09 03:22:43;;;;;;;3.60;1.10;;;;;;;9.30;100.00;92695.44;2107934;28;20119;-90
2022/06/09 03:23:44;;;;;;;2.50;1.08;;;;;;;9.46;100.00;92708.78;2107779;28;20454;-88
2022/06/09 03:24:45;;;;;;;5.22;1.40;;;;;;;9.49;100.00;92707.94;2099422;28;20024;-88
2022/06/09 03:25:46;;;;;;;2.35;1.00;;;;;;;9.50;100.00;92703.34;2107645;28;20358;-88
2022/06/09 03:26:47;;;;;;;2.85;1.20;;;;;;;9.44;100.00;92707.66;2116171;28;20049;-89
2022/06/09 03:27:48;;;;;;;2.50;1.30;;;;;;;9.42;100.00;92708.09;2107816;28;20086;-88
2022/06/09 03:28:51;;;;;;;1.67;0.90;;;;;;;9.41;100.00;92711.94;2091277;28;20508;-90
2022/06/09 03:29:52;;;;;;;3.25;1.33;;;;;;;9.65;100.00;92728.50;2099860;28;20071;-88
2022/06/09 03:30:54;;;;;;;2.92;1.20;;;;;;;9.58;100.00;92724.09;2107698;28;20020;-89
2022/06/09 03:31:56;;;;;;;4.13;1.10;;;;;;;9.62;100.00;92720.59;2099336;28;20024;-88
2022/06/09 03:32:57;;;;;;;4.30;1.20;;;;;;;9.70;100.00;92730.69;2099540;28;20027;-89
2022/06/09 03:33:58;;;;;;;6.97;1.00;;;;;;;9.73;100.00;92729.09;2108368;28;20024;-89
2022/06/09 03:34:59;;;;;;;5.22;0.90;;;;;;;9.66;100.00;92730.03;2099295;28;20052;-89
2022/06/09 03:36:01;;;;;;;4.13;1.13;;;;;;;9.68;100.00;92732.25;2099361;28;20051;-88
2022/06/09 03:37:03;;;;;;;4.18;1.13;;;;;;;9.64;100.00;92734.28;2107649;28;20032;-88
2022/06/09 03:38:04;;;;;;;3.60;1.40;;;;;;;9.65;100.00;92736.50;2107846;28;20373;-89
2022/06/09 03:39:05;;;;;;;4.90;1.75;;;;;;;9.62;100.00;92736.63;2099416;28;20464;-88
2022/06/09 03:40:10;;;;;;;3.00;1.02;;;;;;;9.64;100.00;92747.63;2099132;28;20059;-87
2022/06/09 03:41:12;;;;;;;4.10;1.00;;;;;;;9.71;100.00;92742.13;2107441;28;20020;-88
2022/06/09 03:42:13;;;;;;;2.05;1.27;;;;;;;9.65;100.00;92749.09;2091130;28;20017;-88
2022/06/09 03:43:15;;;;;;;1.00;0.88;;;;;;;9.79;100.00;92751.44;2091005;28;20470;-88
2022/06/09 03:44:18;;;;;;;3.33;1.08;;;;;;;9.86;100.00;92748.59;2099645;28;20574;-88
2022/06/09 03:45:21;;;;;;;1.80;0.80;;;;;;;9.79;100.00;92751.44;2099381;28;20024;-87
2022/06/09 03:46:50;;;;;;;2.30;1.00;;;;;;;9.79;100.00;92748.78;2099501;28;20437;-87
2022/06/09 03:47:51;;;;;;;2.20;0.90;;;;;;;9.88;100.00;92756.16;2111465;28;20015;-88
2022/06/09 03:48:54;;;;;;;2.60;1.08;;;;;;;9.83;100.00;92757.44;2099426;28;20078;-88
2022/06/09 03:49:55;;;;;;;3.03;1.30;;;;;;;9.79;100.00;92762.13;2091395;28;20024;-88
2022/06/09 03:50:56;;;;;;;3.25;1.20;;;;;;;9.96;100.00;92766.25;2091105;28;20028;-87
2022/06/09 03:51:57;;;;;;;2.70;0.82;;;;;;;9.93;100.00;92763.69;2091072;28;20036;-86
2022/06/09 03:53:00;;;;;;;1.52;0.75;;;;;;;9.92;100.00;92764.84;2091006;28;20025;-89
2022/06/09 03:54:02;;;;;;;4.15;0.93;;;;;;;9.83;100.00;92760.88;2099641;28;20028;-89
2022/06/09 03:55:04;;;;;;;3.83;0.90;;;;;;;9.88;100.00;92764.94;2107463;28;20524;-87
2022/06/09 03:56:17;;;;;;;5.72;1.02;;;;;;;9.88;100.00;92764.94;2099186;28;20032;-89
2022/06/09 03:57:19;;;;;;;3.40;0.82;;;;;;;9.90;100.00;92759.94;2109347;28;20031;-88
2022/06/09 03:58:20;;;;;;;2.45;1.00;;;;;;;9.98;100.00;92768.50;2107563;28;20114;-88
2022/06/09 03:59:21;;;;;;;6.60;1.10;;;;;;;10.15;100.00;92767.31;2099001;28;20020;-89
2022/06/09 04:00:27;;;;;;;4.63;1.30;;;;;;;10.24;100.00;92769.38;2099015;28;20028;-88
2022/06/09 04:01:28;;;;;;;3.00;1.05;;;;;;;10.40;100.00;92769.34;2092115;28;20036;-89
2022/06/09 04:02:28;;;;;;;3.15;1.38;;;;;;;10.27;100.00;92779.22;2099254;28;20099;-87
2022/06/09 04:03:30;;;;;;;4.30;1.10;;;;;;;10.26;100.00;92778.50;2115353;28;20023;-88
2022/06/09 04:04:31;;;;;;;4.95;1.63;;;;;;;10.15;100.00;92775.31;2095350;28;20028;-89
2022/06/09 04:05:32;;;;;;;3.13;1.15;;;;;;;10.18;100.00;92782.47;2107502;28;20027;-88
2022/06/09 04:06:35;;;;;;;4.50;1.20;;;;;;;10.43;100.00;92784.53;2099234;28;20046;-90
2022/06/09 04:07:38;;;;;;;3.65;1.00;;;;;;;10.38;100.00;92779.72;2101271;28;20024;-87
2022/06/09 04:08:39;;;;;;;2.60;0.90;;;;;;;10.40;100.00;92782.69;2108017;28;20021;-88
2022/06/09 04:09:40;;;;;;;3.65;1.00;;;;;;;10.34;100.00;92785.16;2112868;28;20008;-88
2022/06/09 04:10:41;;;;;;;3.22;0.90;;;;;;;10.39;100.00;92770.53;2112965;28;20024;-87
2022/06/09 04:11:42;;;;;;;1.52;0.50;;;;;;;10.46;100.00;92775.69;2116867;28;20038;-87
2022/06/09 04:12:43;;;;;;;3.47;0.88;;;;;;;10.36;100.00;92781.28;2117924;28;20035;-86
2022/06/09 04:13:44;;;;;;;2.55;0.68;;;;;;;10.24;100.00;92775.50;2100730;28;20027;-89
2022/06/09 04:14:47;;;;;;;3.85;0.80;;;;;;;10.15;100.00;92774.59;2099015;28;20483;-88
2022/06/09 04:15:48;;;;;;;3.17;0.88;;;;;;;10.09;100.00;92777.75;2099144;28;20071;-89
2022/06/09 04:16:54;;;;;;;3.67;0.82;;;;;;;10.05;100.00;92779.00;2099239;28;20016;-88
2022/06/09 04:17:55;;;;;;;1.65;0.80;;;;;;;10.07;100.00;92772.09;2107369;28;20024;-89
2022/06/09 04:18:59;;;;;;;3.85;1.00;;;;;;;10.09;100.00;92764.38;2099345;28;20490;-88
2022/06/09 04:20:00;;;;;;;1.77;0.80;;;;;;;10.03;100.00;92766.06;2090917;28;20025;-88
2022/06/09 04:21:01;;;;;;;1.73;0.88;;;;;;;10.34;100.00;92766.44;2099127;28;20082;-88
2022/06/09 04:22:03;;;;;;;0.95;0.73;;;;;;;10.51;100.00;92766.41;2099128;28;20016;-90
2022/06/09 04:23:04;;;;;;;1.00;0.70;;;;;;;10.38;100.00;92762.94;2090827;28;20027;-88
2022/06/09 04:24:06;;;;;;;0.63;0.50;;;;;;;10.37;100.00;92764.13;2090812;28;20025;-89
2022/06/09 04:25:08;;;;;;;3.40;0.70;;;;;;;10.31;100.00;92771.88;2090810;28;20025;-89
2022/06/09 04:26:15;;;;;;;1.52;0.70;;;;;;;10.23;100.00;92778.56;2099166;28;20031;-89
2022/06/09 04:27:16;;;;;;;4.40;0.65;;;;;;;10.12;100.00;92778.09;2099712;28;20016;-89
2022/06/09 04:28:24;;;;;;;1.95;0.80;;;;;;;10.00;100.00;92772.25;2090604;28;20055;-88
2022/06/09 04:29:25;;;;;;;6.00;1.23;;;;;;;10.00;100.00;92779.50;2101076;28;20078;-89
2022/06/09 04:30:26;;;;;;;2.40;0.60;;;;;;;10.01;100.00;92773.78;2098881;28;20533;-90
2022/06/09 04:31:27;;;;;;;2.90;0.63;;;;;;;9.94;100.00;92773.94;2098680;28;20020;-89
2022/06/09 04:32:28;;;;;;;0.40;0.40;;;;;;;9.99;100.00;92786.03;2098889;28;20461;-89
2022/06/09 04:33:33;;;;;;;4.15;0.60;;;;;;;9.88;100.00;92775.63;2108564;27;20123;-90
2022/06/09 04:34:34;;;;;;;1.73;0.60;;;;;;;9.91;100.00;92777.44;2098715;28;20421;-89
2022/06/09 04:35:35;;;;;;;3.03;0.63;;;;;;;9.87;100.00;92776.78;2090644;28;20084;-89
2022/06/09 04:36:36;;;;;;;2.80;0.73;;;;;;;9.79;100.00;92784.22;2090544;28;20021;-89
2022/06/09 04:38:57;;;;;;;2.65;0.50;;;;;;;9.89;100.00;92784.38;2104182;28;20029;-88
2022/06/09 04:39:58;;;;;;;1.70;0.68;;;;;;;9.98;100.00;92787.94;2098659;28;20032;-88
2022/06/09 04:41:01;;;;;;;3.03;0.70;;;;;;;10.23;100.00;92797.28;2102216;28;20062;-89
2022/06/09 04:42:02;;;;;;;1.88;0.63;;;;;;;10.17;100.00;92805.03;2098617;28;20032;-89
2022/06/09 04:43:08;;;;;;;2.67;0.50;;;;;;;10.18;100.00;92803.84;2098734;28;20497;-88
2022/06/09 04:44:09;;;;;;;2.05;0.50;;;;;;;10.18;100.00;92797.75;2107580;28;20028;-89
2022/06/09 04:45:10;;;;;;;0.75;0.70;;;;;;;10.34;100.00;92805.78;2107281;28;20052;-89
2022/06/09 04:46:18;;;;;;;1.27;0.50;;;;;;;10.41;100.00;92810.19;2107161;28;20024;-89
2022/06/09 04:47:20;;;;;;;2.00;0.60;;;;;;;10.27;100.00;92801.38;2099501;28;20044;-89
2022/06/09 04:48:21;;;;;;;0.63;0.50;;;;;;;10.22;100.00;92804.50;2098869;28;20029;-88
2022/06/09 04:49:31;;;;;;;1.48;0.63;;;;;;;10.30;100.00;92805.13;2098792;28;20115;-89
2022/06/09 04:50:32;;;;;;;1.90;0.70;;;;;;;10.24;100.00;92807.56;2092672;28;20108;-89
2022/06/09 04:51:33;;;;;;;1.50;0.60;;;;;;;10.32;100.00;92808.13;2098682;28;20080;-89
2022/06/09 04:52:35;;;;;;;0.55;0.50;;;;;;;10.51;100.00;92812.56;2098851;28;20413;-87
2022/06/09 04:53:36;;;;;;;4.40;0.65;;;;;;;10.57;100.00;92807.47;2098689;28;20622;-87
2022/06/09 04:54:37;;;;;;;2.25;0.60;;;;;;;10.43;100.00;92811.25;2098703;28;20024;-88
2022/06/09 04:55:40;;;;;;;2.47;0.68;;;;;;;10.21;100.00;92807.59;2106885;28;20072;-88
2022/06/09 04:56:41;;;;;;;1.08;0.47;;;;;;;10.16;100.00;92810.78;2106917;28;20050;-88
2022/06/09 04:57:42;;;;;;;1.17;0.60;;;;;;;10.38;100.00;92813.69;2098574;28;20377;-88
2022/06/09 04:58:43;;;;;;;2.45;0.68;;;;;;;10.24;100.00;92812.13;2098624;28;20028;-89
2022/06/09 04:59:44;;;;;;;2.38;0.60;;;;;;;10.34;100.00;92816.47;2090266;28;20027;-87
2022/06/09 05:00:45;;;;;;;5.30;0.90;;;;;;;10.34;100.00;92811.88;2096903;28;20500;-89
2022/06/09 05:01:46;;;;;;;2.55;0.70;;;;;;;10.29;100.00;92812.38;2098565;28;20065;-89
2022/06/09 05:02:47;;;;;;;1.80;0.60;;;;;;;10.08;100.00;92802.94;2107046;28;20024;-90
2022/06/09 05:03:49;;;;;;;2.70;0.98;;;;;;;10.15;100.00;92806.63;2109978;28;20019;-90
2022/06/09 05:04:50;;;;;;;3.10;0.63;;;;;;;10.20;100.00;92816.81;2107123;28;20043;-89
2022/06/09 05:05:51;;;;;;;1.60;0.65;;;;;;;10.11;100.00;92812.06;2107150;28;20012;-88
2022/06/09 05:06:52;;;;;;;2.10;0.98;;;;;;;10.22;100.00;92812.53;2106638;28;20575;-88
2022/06/09 05:07:53;;;;;;;3.25;0.80;;;;;;;10.14;100.00;92813.91;2098460;28;20020;-89